sensor_id;sensor_type;location;lat;lon;timestamp;temperature;humidity
21906;DHT22;11117;48.644;9.006;2023-09-19T00:00:41;16.60;99.90
21906;DHT22;11117;48.644;9.006;2023-09-19T00:03:07;16.60;99.90
21906;DHT22;11117;48.644;9.006;2023-09-19T00:05:37;16.60;99.90
21906;DHT22;11117;48.644;9.006;2023-09-19T00:08:03;16.50;99.90
21906;DHT22;11117;48.644;9.006;2023-09-19T00:10:28;16.50;99.90
21906;DHT22;11117;48.644;9.006;2023-09-19T00:12:54;16.60;99.90
21906;DHT22;11117;48.644;9.006;2023-09-19T00:15:19;16.60;99.90
21906;DHT22;11117;48.644;9.006;2023-09-19T00:17:45;16.50;99.90
21906;DHT22;11117;48.644;9.006;2023-09-19T00:20:11;16.50;99.90
21906;DHT22;11117;48.644;9.006;2023-09-19T00:22:39;16.30;99.90
21906;DHT22;11117;48.644;9.006;2023-09-19T00:25:05;16.40;99.90
21906;DHT22;11117;48.644;9.006;2023-09-19T00:27:31;16.30;99.90
21906;DHT22;11117;48.644;9.006;2023-09-19T00:29:56;16.40;99.90
21906;DHT22;11117;48.644;9.006;2023-09-19T00:32:22;16.30;99.90
21906;DHT22;11117;48.644;9.006;2023-09-19T00:34:47;16.40;99.90
21906;DHT22;11117;48.644;9.006;2023-09-19T00:37:13;16.40;99.90
21906;DHT22;11117;48.644;9.006;2023-09-19T00:39:38;16.50;99.90
21906;DHT22;11117;48.644;9.006;2023-09-19T00:42:04;16.60;99.90
21906;DHT22;11117;48.644;9.006;2023-09-19T00:44:29;16.60;99.90
21906;DHT22;11117;48.644;9.006;2023-09-19T00:46:55;16.60;99.90
21906;DHT22;11117;48.644;9.006;2023-09-19T00:49:20;16.60;99.90
21906;DHT22;11117;48.644;9.006;2023-09-19T00:51:48;16.60;99.90
21906;DHT22;11117;48.644;9.006;2023-09-19T00:54:15;16.60;99.90
21906;DHT22;11117;48.644;9.006;2023-09-19T00:56:46;16.60;99.90
21906;DHT22;11117;48.644;9.006;2023-09-19T00:59:12;16.40;99.90
21906;DHT22;11117;48.644;9.006;2023-09-19T01:01:37;16.40;99.90
21906;DHT22;11117;48.644;9.006;2023-09-19T01:04:04;16.30;99.90
21906;DHT22;11117;48.644;9.006;2023-09-19T01:06:30;16.40;99.90
21906;DHT22;11117;48.644;9.006;2023-09-19T01:08:56;16.40;99.90
21906;DHT22;11117;48.644;9.006;2023-09-19T01:11:28;16.40;99.90
21906;DHT22;11117;48.644;9.006;2023-09-19T01:14:24;16.50;99.90
21906;DHT22;11117;48.644;9.006;2023-09-19T01:28:06;15.90;99.90
21906;DHT22;11117;48.644;9.006;2023-09-19T01:30:40;15.80;99.90
21906;DHT22;11117;48.644;9.006;2023-09-19T01:33:08;15.70;99.90
21906;DHT22;11117;48.644;9.006;2023-09-19T01:35:34;15.60;99.90
21906;DHT22;11117;48.644;9.006;2023-09-19T01:37:59;15.50;99.90
21906;DHT22;11117;48.644;9.006;2023-09-19T01:40:25;15.50;99.90
21906;DHT22;11117;48.644;9.006;2023-09-19T01:46:09;15.40;99.90
21906;DHT22;11117;48.644;9.006;2023-09-19T01:48:46;15.40;99.90
21906;DHT22;11117;48.644;9.006;2023-09-19T01:51:34;15.40;99.90
21906;DHT22;11117;48.644;9.006;2023-09-19T01:54:03;15.40;99.90
21906;DHT22;11117;48.644;9.006;2023-09-19T01:56:40;15.40;99.90
21906;DHT22;11117;48.644;9.006;2023-09-19T01:59:11;15.50;99.90
21906;DHT22;11117;48.644;9.006;2023-09-19T02:01:39;15.50;99.90
21906;DHT22;11117;48.644;9.006;2023-09-19T02:04:05;15.40;99.90
21906;DHT22;11117;48.644;9.006;2023-09-19T02:06:32;15.30;99.90
21906;DHT22;11117;48.644;9.006;2023-09-19T02:08:58;15.20;99.90
21906;DHT22;11117;48.644;9.006;2023-09-19T02:11:24;15.20;99.90
21906;DHT22;11117;48.644;9.006;2023-09-19T02:13:50;15.10;99.90
21906;DHT22;11117;48.644;9.006;2023-09-19T02:16:17;15.10;99.90
21906;DHT22;11117;48.644;9.006;2023-09-19T02:18:42;15.00;99.90
21906;DHT22;11117;48.644;9.006;2023-09-19T02:21:08;14.90;99.90
21906;DHT22;11117;48.644;9.006;2023-09-19T02:23:33;14.90;99.90
21906;DHT22;11117;48.644;9.006;2023-09-19T02:25:59;14.90;99.90
21906;DHT22;11117;48.644;9.006;2023-09-19T02:28:25;14.90;99.90
21906;DHT22;11117;48.644;9.006;2023-09-19T02:30:50;14.80;99.90
21906;DHT22;11117;48.644;9.006;2023-09-19T02:33:16;14.90;99.90
21906;DHT22;11117;48.644;9.006;2023-09-19T02:35:41;14.80;99.90
21906;DHT22;11117;48.644;9.006;2023-09-19T02:38:07;14.80;99.90
21906;DHT22;11117;48.644;9.006;2023-09-19T02:40:33;14.80;99.90
21906;DHT22;11117;48.644;9.006;2023-09-19T02:42:58;14.70;99.90
21906;DHT22;11117;48.644;9.006;2023-09-19T02:45:24;14.80;99.90
21906;DHT22;11117;48.644;9.006;2023-09-19T02:47:49;14.80;99.90
21906;DHT22;11117;48.644;9.006;2023-09-19T02:50:15;14.80;99.90
21906;DHT22;11117;48.644;9.006;2023-09-19T02:52:43;14.80;99.90
21906;DHT22;11117;48.644;9.006;2023-09-19T02:55:08;14.90;99.90
21906;DHT22;11117;48.644;9.006;2023-09-19T02:57:34;14.90;99.90
21906;DHT22;11117;48.644;9.006;2023-09-19T03:00:00;15.00;99.90
21906;DHT22;11117;48.644;9.006;2023-09-19T03:02:25;15.10;99.90
21906;DHT22;11117;48.644;9.006;2023-09-19T03:04:51;15.30;99.90
21906;DHT22;11117;48.644;9.006;2023-09-19T03:07:17;15.40;99.90
21906;DHT22;11117;48.644;9.006;2023-09-19T03:09:42;15.60;99.90
21906;DHT22;11117;48.644;9.006;2023-09-19T03:12:08;15.70;99.90
21906;DHT22;11117;48.644;9.006;2023-09-19T03:14:33;15.80;99.90
21906;DHT22;11117;48.644;9.006;2023-09-19T03:16:59;15.80;99.90
21906;DHT22;11117;48.644;9.006;2023-09-19T03:19:24;15.90;99.90
21906;DHT22;11117;48.644;9.006;2023-09-19T03:21:50;15.90;99.90
21906;DHT22;11117;48.644;9.006;2023-09-19T03:24:15;16.10;99.90
21906;DHT22;11117;48.644;9.006;2023-09-19T03:26:46;16.10;99.90
21906;DHT22;11117;48.644;9.006;2023-09-19T03:29:12;16.00;99.90
21906;DHT22;11117;48.644;9.006;2023-09-19T03:31:37;16.10;99.90
21906;DHT22;11117;48.644;9.006;2023-09-19T03:34:03;16.20;99.90
21906;DHT22;11117;48.644;9.006;2023-09-19T03:36:29;16.20;99.90
21906;DHT22;11117;48.644;9.006;2023-09-19T03:38:55;16.30;99.90
21906;DHT22;11117;48.644;9.006;2023-09-19T03:41:20;16.30;99.90
21906;DHT22;11117;48.644;9.006;2023-09-19T03:43:46;16.40;99.90
21906;DHT22;11117;48.644;9.006;2023-09-19T03:46:11;16.40;99.90
21906;DHT22;11117;48.644;9.006;2023-09-19T03:48:37;16.30;99.90
21906;DHT22;11117;48.644;9.006;2023-09-19T03:51:02;16.20;99.90
21906;DHT22;11117;48.644;9.006;2023-09-19T03:53:28;16.20;99.90
21906;DHT22;11117;48.644;9.006;2023-09-19T03:55:53;16.30;99.90
21906;DHT22;11117;48.644;9.006;2023-09-19T03:58:19;16.40;99.90
21906;DHT22;11117;48.644;9.006;2023-09-19T04:00:44;16.50;99.90
21906;DHT22;11117;48.644;9.006;2023-09-19T04:03:10;16.50;99.90
21906;DHT22;11117;48.644;9.006;2023-09-19T04:05:35;16.50;99.90
21906;DHT22;11117;48.644;9.006;2023-09-19T04:08:01;16.50;99.90
21906;DHT22;11117;48.644;9.006;2023-09-19T04:10:26;16.40;99.90
21906;DHT22;11117;48.644;9.006;2023-09-19T04:12:53;16.40;99.90
21906;DHT22;11117;48.644;9.006;2023-09-19T04:15:18;16.30;99.90
21906;DHT22;11117;48.644;9.006;2023-09-19T04:17:44;16.30;99.90
21906;DHT22;11117;48.644;9.006;2023-09-19T04:20:10;16.30;99.90
21906;DHT22;11117;48.644;9.006;2023-09-19T04:22:35;16.30;99.90
21906;DHT22;11117;48.644;9.006;2023-09-19T04:25:01;16.30;99.90
21906;DHT22;11117;48.644;9.006;2023-09-19T04:27:26;16.40;99.90
21906;DHT22;11117;48.644;9.006;2023-09-19T04:29:52;16.40;99.90
21906;DHT22;11117;48.644;9.006;2023-09-19T04:32:17;16.40;99.90
21906;DHT22;11117;48.644;9.006;2023-09-19T04:34:43;16.40;99.90
21906;DHT22;11117;48.644;9.006;2023-09-19T04:37:08;16.40;99.90
21906;DHT22;11117;48.644;9.006;2023-09-19T04:39:34;16.40;99.90
21906;DHT22;11117;48.644;9.006;2023-09-19T04:41:59;16.40;99.90
21906;DHT22;11117;48.644;9.006;2023-09-19T04:44:25;16.40;99.90
21906;DHT22;11117;48.644;9.006;2023-09-19T04:46:50;16.50;99.90
21906;DHT22;11117;48.644;9.006;2023-09-19T04:49:16;16.40;99.90
21906;DHT22;11117;48.644;9.006;2023-09-19T04:51:45;16.50;99.90
21906;DHT22;11117;48.644;9.006;2023-09-19T04:54:11;16.60;99.90
21906;DHT22;11117;48.644;9.006;2023-09-19T04:56:36;16.60;99.90
21906;DHT22;11117;48.644;9.006;2023-09-19T04:59:02;16.70;99.90
21906;DHT22;11117;48.644;9.006;2023-09-19T05:01:27;16.70;99.90
21906;DHT22;11117;48.644;9.006;2023-09-19T05:03:53;16.70;99.90
21906;DHT22;11117;48.644;9.006;2023-09-19T05:06:19;16.70;99.90
21906;DHT22;11117;48.644;9.006;2023-09-19T05:08:45;16.70;99.90
21906;DHT22;11117;48.644;9.006;2023-09-19T05:11:10;16.70;99.90
21906;DHT22;11117;48.644;9.006;2023-09-19T05:13:36;16.60;99.90
21906;DHT22;11117;48.644;9.006;2023-09-19T05:16:01;16.70;99.90
21906;DHT22;11117;48.644;9.006;2023-09-19T05:18:27;16.70;99.90
21906;DHT22;11117;48.644;9.006;2023-09-19T05:20:52;16.70;99.90
21906;DHT22;11117;48.644;9.006;2023-09-19T05:23:18;16.70;99.90
21906;DHT22;11117;48.644;9.006;2023-09-19T05:25:43;16.70;99.90
21906;DHT22;11117;48.644;9.006;2023-09-19T05:28:10;16.70;99.90
21906;DHT22;11117;48.644;9.006;2023-09-19T05:30:36;16.60;99.90
21906;DHT22;11117;48.644;9.006;2023-09-19T05:33:02;16.40;99.90
21906;DHT22;11117;48.644;9.006;2023-09-19T05:35:28;16.40;99.90
21906;DHT22;11117;48.644;9.006;2023-09-19T05:37:54;16.40;99.90
21906;DHT22;11117;48.644;9.006;2023-09-19T05:40:20;16.40;99.90
21906;DHT22;11117;48.644;9.006;2023-09-19T05:42:46;16.40;99.90
21906;DHT22;11117;48.644;9.006;2023-09-19T05:45:13;16.60;99.90
21906;DHT22;11117;48.644;9.006;2023-09-19T05:47:40;16.70;99.90
21906;DHT22;11117;48.644;9.006;2023-09-19T05:50:06;16.80;99.90
21906;DHT22;11117;48.644;9.006;2023-09-19T05:52:31;16.90;99.90
21906;DHT22;11117;48.644;9.006;2023-09-19T05:54:57;17.00;99.90
21906;DHT22;11117;48.644;9.006;2023-09-19T05:57:22;17.10;99.90
21906;DHT22;11117;48.644;9.006;2023-09-19T05:59:48;17.10;99.90
21906;DHT22;11117;48.644;9.006;2023-09-19T06:02:13;17.20;99.90
21906;DHT22;11117;48.644;9.006;2023-09-19T06:04:39;17.10;99.90
21906;DHT22;11117;48.644;9.006;2023-09-19T06:07:10;17.00;99.90
21906;DHT22;11117;48.644;9.006;2023-09-19T06:09:35;16.70;99.90
21906;DHT22;11117;48.644;9.006;2023-09-19T06:12:01;16.50;99.90
21906;DHT22;11117;48.644;9.006;2023-09-19T06:14:26;16.50;99.90
21906;DHT22;11117;48.644;9.006;2023-09-19T06:16:52;16.40;99.90
21906;DHT22;11117;48.644;9.006;2023-09-19T06:19:17;16.10;99.90
21906;DHT22;11117;48.644;9.006;2023-09-19T06:21:45;16.00;99.90
21906;DHT22;11117;48.644;9.006;2023-09-19T06:24:11;15.80;99.90
21906;DHT22;11117;48.644;9.006;2023-09-19T06:26:37;15.60;99.90
21906;DHT22;11117;48.644;9.006;2023-09-19T06:29:02;15.40;99.90
21906;DHT22;11117;48.644;9.006;2023-09-19T06:31:28;15.30;99.90
21906;DHT22;11117;48.644;9.006;2023-09-19T06:33:53;15.30;99.90
21906;DHT22;11117;48.644;9.006;2023-09-19T06:36:19;15.30;99.90
21906;DHT22;11117;48.644;9.006;2023-09-19T06:38:44;15.40;99.90
21906;DHT22;11117;48.644;9.006;2023-09-19T06:41:10;15.60;99.90
21906;DHT22;11117;48.644;9.006;2023-09-19T06:43:36;15.80;99.90
21906;DHT22;11117;48.644;9.006;2023-09-19T06:46:02;15.90;99.90
21906;DHT22;11117;48.644;9.006;2023-09-19T06:48:27;16.00;99.90
21906;DHT22;11117;48.644;9.006;2023-09-19T06:50:53;16.20;99.90
21906;DHT22;11117;48.644;9.006;2023-09-19T06:53:19;16.30;99.90
21906;DHT22;11117;48.644;9.006;2023-09-19T06:55:44;16.50;99.90
21906;DHT22;11117;48.644;9.006;2023-09-19T06:58:10;16.70;99.90
21906;DHT22;11117;48.644;9.006;2023-09-19T07:00:36;16.80;99.90
21906;DHT22;11117;48.644;9.006;2023-09-19T07:03:04;16.90;99.90
21906;DHT22;11117;48.644;9.006;2023-09-19T07:05:31;16.80;99.90
21906;DHT22;11117;48.644;9.006;2023-09-19T07:07:57;16.90;99.90
21906;DHT22;11117;48.644;9.006;2023-09-19T07:10:23;17.00;99.90
21906;DHT22;11117;48.644;9.006;2023-09-19T07:15:21;17.20;99.90
21906;DHT22;11117;48.644;9.006;2023-09-19T07:17:47;17.30;99.90
21906;DHT22;11117;48.644;9.006;2023-09-19T07:20:12;17.30;99.90
21906;DHT22;11117;48.644;9.006;2023-09-19T07:22:38;17.30;99.90
21906;DHT22;11117;48.644;9.006;2023-09-19T07:25:04;17.20;99.90
21906;DHT22;11117;48.644;9.006;2023-09-19T07:27:29;17.10;99.90
21906;DHT22;11117;48.644;9.006;2023-09-19T07:29:55;17.30;99.90
21906;DHT22;11117;48.644;9.006;2023-09-19T07:32:20;17.30;99.90
21906;DHT22;11117;48.644;9.006;2023-09-19T07:34:46;17.40;99.90
21906;DHT22;11117;48.644;9.006;2023-09-19T07:37:11;17.30;99.90
21906;DHT22;11117;48.644;9.006;2023-09-19T07:39:37;17.30;99.90
21906;DHT22;11117;48.644;9.006;2023-09-19T07:42:03;17.30;99.90
21906;DHT22;11117;48.644;9.006;2023-09-19T07:44:28;17.40;99.90
21906;DHT22;11117;48.644;9.006;2023-09-19T07:46:54;17.40;99.90
21906;DHT22;11117;48.644;9.006;2023-09-19T07:49:19;17.40;99.90
21906;DHT22;11117;48.644;9.006;2023-09-19T07:51:47;17.40;99.90
21906;DHT22;11117;48.644;9.006;2023-09-19T07:54:12;17.40;99.90
21906;DHT22;11117;48.644;9.006;2023-09-19T07:56:38;17.60;99.90
21906;DHT22;11117;48.644;9.006;2023-09-19T07:59:04;17.80;99.90
21906;DHT22;11117;48.644;9.006;2023-09-19T08:01:29;17.90;99.90
21906;DHT22;11117;48.644;9.006;2023-09-19T08:03:55;18.00;99.90
21906;DHT22;11117;48.644;9.006;2023-09-19T08:06:21;18.00;99.90
21906;DHT22;11117;48.644;9.006;2023-09-19T08:08:46;18.10;99.90
21906;DHT22;11117;48.644;9.006;2023-09-19T08:11:12;18.20;99.90
21906;DHT22;11117;48.644;9.006;2023-09-19T08:13:41;18.20;99.90
21906;DHT22;11117;48.644;9.006;2023-09-19T08:16:06;18.20;99.90
21906;DHT22;11117;48.644;9.006;2023-09-19T08:18:34;18.40;99.90
21906;DHT22;11117;48.644;9.006;2023-09-19T08:21:00;18.50;99.90
21906;DHT22;11117;48.644;9.006;2023-09-19T08:23:26;18.60;99.90
21906;DHT22;11117;48.644;9.006;2023-09-19T08:25:56;18.30;99.90
21906;DHT22;11117;48.644;9.006;2023-09-19T08:28:22;18.20;99.90
21906;DHT22;11117;48.644;9.006;2023-09-19T08:30:47;18.30;99.90
21906;DHT22;11117;48.644;9.006;2023-09-19T08:33:13;18.30;99.90
21906;DHT22;11117;48.644;9.006;2023-09-19T08:35:38;18.50;99.90
21906;DHT22;11117;48.644;9.006;2023-09-19T08:38:04;18.50;99.90
21906;DHT22;11117;48.644;9.006;2023-09-19T08:40:36;18.50;99.90
21906;DHT22;11117;48.644;9.006;2023-09-19T08:43:02;18.40;99.90
21906;DHT22;11117;48.644;9.006;2023-09-19T08:45:27;18.40;99.90
21906;DHT22;11117;48.644;9.006;2023-09-19T08:48:28;18.50;99.90
21906;DHT22;11117;48.644;9.006;2023-09-19T08:51:06;18.70;99.90
21906;DHT22;11117;48.644;9.006;2023-09-19T08:54:26;18.90;99.90
21906;DHT22;11117;48.644;9.006;2023-09-19T08:56:54;19.10;99.90
21906;DHT22;11117;48.644;9.006;2023-09-19T08:59:22;19.10;99.90
21906;DHT22;11117;48.644;9.006;2023-09-19T09:01:48;19.20;99.90
21906;DHT22;11117;48.644;9.006;2023-09-19T09:04:13;19.40;99.90
21906;DHT22;11117;48.644;9.006;2023-09-19T09:06:39;19.60;99.90
21906;DHT22;11117;48.644;9.006;2023-09-19T09:09:06;19.60;99.90
21906;DHT22;11117;48.644;9.006;2023-09-19T09:11:33;20.00;99.90
21906;DHT22;11117;48.644;9.006;2023-09-19T09:13:59;19.90;99.90
21906;DHT22;11117;48.644;9.006;2023-09-19T09:16:24;20.10;99.90
21906;DHT22;11117;48.644;9.006;2023-09-19T09:18:50;20.10;99.90
21906;DHT22;11117;48.644;9.006;2023-09-19T09:21:15;20.40;99.90
21906;DHT22;11117;48.644;9.006;2023-09-19T09:23:41;20.30;99.90
21906;DHT22;11117;48.644;9.006;2023-09-19T09:26:06;20.20;99.90
21906;DHT22;11117;48.644;9.006;2023-09-19T09:28:33;20.30;99.90
21906;DHT22;11117;48.644;9.006;2023-09-19T09:31:00;20.50;99.90
21906;DHT22;11117;48.644;9.006;2023-09-19T09:33:26;20.60;99.90
21906;DHT22;11117;48.644;9.006;2023-09-19T09:35:52;20.50;99.90
21906;DHT22;11117;48.644;9.006;2023-09-19T09:38:19;20.30;99.90
21906;DHT22;11117;48.644;9.006;2023-09-19T09:40:49;20.30;99.90
21906;DHT22;11117;48.644;9.006;2023-09-19T09:43:25;20.30;99.90
21906;DHT22;11117;48.644;9.006;2023-09-19T09:48:31;20.20;99.90
21906;DHT22;11117;48.644;9.006;2023-09-19T09:50:57;20.00;99.90
21906;DHT22;11117;48.644;9.006;2023-09-19T09:53:26;20.00;99.90
21906;DHT22;11117;48.644;9.006;2023-09-19T09:58:27;19.50;99.90
21906;DHT22;11117;48.644;9.006;2023-09-19T10:00:59;19.40;99.90
21906;DHT22;11117;48.644;9.006;2023-09-19T10:03:51;19.70;99.90
21906;DHT22;11117;48.644;9.006;2023-09-19T10:06:22;19.80;99.90
21906;DHT22;11117;48.644;9.006;2023-09-19T10:09:08;19.80;99.90
21906;DHT22;11117;48.644;9.006;2023-09-19T10:11:34;19.90;99.90
21906;DHT22;11117;48.644;9.006;2023-09-19T10:14:00;20.10;99.90
21906;DHT22;11117;48.644;9.006;2023-09-19T10:16:30;20.20;99.90
21906;DHT22;11117;48.644;9.006;2023-09-19T10:18:57;20.20;99.90
21906;DHT22;11117;48.644;9.006;2023-09-19T10:21:24;20.30;99.90
21906;DHT22;11117;48.644;9.006;2023-09-19T10:23:50;20.00;99.90
21906;DHT22;11117;48.644;9.006;2023-09-19T10:26:19;20.00;99.90
21906;DHT22;11117;48.644;9.006;2023-09-19T10:28:47;19.80;99.90
21906;DHT22;11117;48.644;9.006;2023-09-19T10:31:19;19.90;99.90
21906;DHT22;11117;48.644;9.006;2023-09-19T10:33:44;19.80;99.90
21906;DHT22;11117;48.644;9.006;2023-09-19T10:36:12;19.70;99.90
21906;DHT22;11117;48.644;9.006;2023-09-19T10:38:39;19.70;99.90
21906;DHT22;11117;48.644;9.006;2023-09-19T10:41:09;19.50;99.90
21906;DHT22;11117;48.644;9.006;2023-09-19T10:43:38;19.30;99.90
21906;DHT22;11117;48.644;9.006;2023-09-19T10:46:08;19.20;99.90
21906;DHT22;11117;48.644;9.006;2023-09-19T10:48:34;19.10;99.90
21906;DHT22;11117;48.644;9.006;2023-09-19T10:53:51;19.10;99.90
21906;DHT22;11117;48.644;9.006;2023-09-19T10:56:27;19.30;99.90
21906;DHT22;11117;48.644;9.006;2023-09-19T10:59:07;19.20;99.90
21906;DHT22;11117;48.644;9.006;2023-09-19T11:01:43;19.10;99.90
21906;DHT22;11117;48.644;9.006;2023-09-19T11:04:32;19.00;99.90
21906;DHT22;11117;48.644;9.006;2023-09-19T11:09:46;19.20;99.90
21906;DHT22;11117;48.644;9.006;2023-09-19T11:12:24;19.20;99.90
21906;DHT22;11117;48.644;9.006;2023-09-19T11:14:58;19.10;99.90
21906;DHT22;11117;48.644;9.006;2023-09-19T11:17:41;19.20;99.90
21906;DHT22;11117;48.644;9.006;2023-09-19T11:30:32;19.40;99.90
21906;DHT22;11117;48.644;9.006;2023-09-19T11:33:34;19.50;99.90
21906;DHT22;11117;48.644;9.006;2023-09-19T11:41:38;19.80;99.90
21906;DHT22;11117;48.644;9.006;2023-09-19T11:49:25;19.80;99.90
21906;DHT22;11117;48.644;9.006;2023-09-19T11:51:51;19.90;99.90
21906;DHT22;11117;48.644;9.006;2023-09-19T11:54:17;20.10;99.90
21906;DHT22;11117;48.644;9.006;2023-09-19T11:56:54;20.00;99.90
21906;DHT22;11117;48.644;9.006;2023-09-19T11:59:20;20.00;99.90
21906;DHT22;11117;48.644;9.006;2023-09-19T12:01:51;19.90;99.90
21906;DHT22;11117;48.644;9.006;2023-09-19T12:04:18;20.10;99.90
21906;DHT22;11117;48.644;9.006;2023-09-19T12:06:56;20.00;99.90
21906;DHT22;11117;48.644;9.006;2023-09-19T12:09:22;19.90;99.90
21906;DHT22;11117;48.644;9.006;2023-09-19T12:11:47;19.80;99.90
21906;DHT22;11117;48.644;9.006;2023-09-19T12:14:22;19.80;99.90
21906;DHT22;11117;48.644;9.006;2023-09-19T12:16:53;19.90;99.90
21906;DHT22;11117;48.644;9.006;2023-09-19T12:19:20;20.00;99.90
21906;DHT22;11117;48.644;9.006;2023-09-19T12:21:55;20.10;99.90
21906;DHT22;11117;48.644;9.006;2023-09-19T12:24:20;20.10;99.90
21906;DHT22;11117;48.644;9.006;2023-09-19T12:26:47;20.20;99.90
21906;DHT22;11117;48.644;9.006;2023-09-19T12:29:17;20.30;99.90
21906;DHT22;11117;48.644;9.006;2023-09-19T12:31:58;20.20;99.90
21906;DHT22;11117;48.644;9.006;2023-09-19T12:34:29;20.20;99.90
21906;DHT22;11117;48.644;9.006;2023-09-19T12:37:10;20.20;99.90
21906;DHT22;11117;48.644;9.006;2023-09-19T12:39:37;20.20;99.90
21906;DHT22;11117;48.644;9.006;2023-09-19T12:42:03;20.40;99.90
21906;DHT22;11117;48.644;9.006;2023-09-19T12:44:28;20.50;99.90
21906;DHT22;11117;48.644;9.006;2023-09-19T12:46:54;20.30;99.90
21906;DHT22;11117;48.644;9.006;2023-09-19T12:49:20;20.20;99.90
21906;DHT22;11117;48.644;9.006;2023-09-19T12:51:49;20.10;99.90
21906;DHT22;11117;48.644;9.006;2023-09-19T12:54:19;20.20;99.90
21906;DHT22;11117;48.644;9.006;2023-09-19T12:56:47;20.10;99.90
21906;DHT22;11117;48.644;9.006;2023-09-19T12:59:13;20.10;99.90
21906;DHT22;11117;48.644;9.006;2023-09-19T13:01:39;20.10;99.90
21906;DHT22;11117;48.644;9.006;2023-09-19T13:06:39;20.20;99.90
21906;DHT22;11117;48.644;9.006;2023-09-19T13:09:08;20.40;99.90
21906;DHT22;11117;48.644;9.006;2023-09-19T13:11:37;20.50;99.90
21906;DHT22;11117;48.644;9.006;2023-09-19T13:14:21;20.70;99.90
21906;DHT22;11117;48.644;9.006;2023-09-19T13:19:44;20.80;99.90
21906;DHT22;11117;48.644;9.006;2023-09-19T13:22:39;21.10;99.90
21906;DHT22;11117;48.644;9.006;2023-09-19T13:25:10;21.20;99.90
21906;DHT22;11117;48.644;9.006;2023-09-19T13:27:36;21.50;99.90
21906;DHT22;11117;48.644;9.006;2023-09-19T13:30:01;21.60;99.90
21906;DHT22;11117;48.644;9.006;2023-09-19T13:32:27;21.60;99.90
21906;DHT22;11117;48.644;9.006;2023-09-19T13:34:52;21.60;99.90
21906;DHT22;11117;48.644;9.006;2023-09-19T13:37:18;21.50;99.90
21906;DHT22;11117;48.644;9.006;2023-09-19T13:39:44;21.40;99.90
21906;DHT22;11117;48.644;9.006;2023-09-19T13:42:09;21.40;99.90
21906;DHT22;11117;48.644;9.006;2023-09-19T13:44:35;21.50;99.90
21906;DHT22;11117;48.644;9.006;2023-09-19T13:47:00;21.50;99.90
21906;DHT22;11117;48.644;9.006;2023-09-19T13:49:26;21.50;99.90
21906;DHT22;11117;48.644;9.006;2023-09-19T13:51:51;21.50;99.90
21906;DHT22;11117;48.644;9.006;2023-09-19T13:54:17;21.20;99.90
21906;DHT22;11117;48.644;9.006;2023-09-19T13:56:47;21.30;99.90
21906;DHT22;11117;48.644;9.006;2023-09-19T13:59:12;21.30;99.90
21906;DHT22;11117;48.644;9.006;2023-09-19T14:01:38;21.40;99.90
21906;DHT22;11117;48.644;9.006;2023-09-19T14:04:04;21.50;99.90
21906;DHT22;11117;48.644;9.006;2023-09-19T14:06:29;21.70;99.90
21906;DHT22;11117;48.644;9.006;2023-09-19T14:08:55;21.70;99.90
21906;DHT22;11117;48.644;9.006;2023-09-19T14:11:20;21.70;99.90
21906;DHT22;11117;48.644;9.006;2023-09-19T14:13:46;21.70;99.90
21906;DHT22;11117;48.644;9.006;2023-09-19T14:16:12;21.60;99.90
21906;DHT22;11117;48.644;9.006;2023-09-19T14:18:38;21.80;99.90
21906;DHT22;11117;48.644;9.006;2023-09-19T14:21:07;21.90;99.90
21906;DHT22;11117;48.644;9.006;2023-09-19T14:23:38;21.90;99.90
21906;DHT22;11117;48.644;9.006;2023-09-19T14:26:04;22.00;99.90
21906;DHT22;11117;48.644;9.006;2023-09-19T14:28:30;22.10;99.90
21906;DHT22;11117;48.644;9.006;2023-09-19T14:30:56;22.10;99.90
21906;DHT22;11117;48.644;9.006;2023-09-19T14:33:21;22.00;99.90
21906;DHT22;11117;48.644;9.006;2023-09-19T14:35:47;21.90;99.90
21906;DHT22;11117;48.644;9.006;2023-09-19T14:38:14;21.90;99.90
21906;DHT22;11117;48.644;9.006;2023-09-19T14:40:39;21.80;99.90
21906;DHT22;11117;48.644;9.006;2023-09-19T14:43:05;21.90;99.90
21906;DHT22;11117;48.644;9.006;2023-09-19T14:45:30;21.90;99.90
21906;DHT22;11117;48.644;9.006;2023-09-19T14:47:56;21.90;99.90
21906;DHT22;11117;48.644;9.006;2023-09-19T14:50:22;22.10;99.90
21906;DHT22;11117;48.644;9.006;2023-09-19T14:52:47;22.30;99.90
21906;DHT22;11117;48.644;9.006;2023-09-19T14:55:13;22.40;99.90
21906;DHT22;11117;48.644;9.006;2023-09-19T14:57:38;22.40;99.90
21906;DHT22;11117;48.644;9.006;2023-09-19T15:00:04;22.50;99.90
21906;DHT22;11117;48.644;9.006;2023-09-19T15:02:30;22.60;99.90
21906;DHT22;11117;48.644;9.006;2023-09-19T15:04:55;22.40;99.90
21906;DHT22;11117;48.644;9.006;2023-09-19T15:07:21;22.40;99.90
21906;DHT22;11117;48.644;9.006;2023-09-19T15:09:46;22.30;99.90
21906;DHT22;11117;48.644;9.006;2023-09-19T15:12:12;22.30;99.90
21906;DHT22;11117;48.644;9.006;2023-09-19T15:14:38;22.30;99.90
21906;DHT22;11117;48.644;9.006;2023-09-19T15:17:03;22.30;99.90
21906;DHT22;11117;48.644;9.006;2023-09-19T15:19:29;22.40;99.90
21906;DHT22;11117;48.644;9.006;2023-09-19T15:21:54;22.30;99.90
21906;DHT22;11117;48.644;9.006;2023-09-19T15:24:20;21.90;99.90
21906;DHT22;11117;48.644;9.006;2023-09-19T15:26:47;21.80;99.90
21906;DHT22;11117;48.644;9.006;2023-09-19T15:29:12;21.70;99.90
21906;DHT22;11117;48.644;9.006;2023-09-19T15:31:38;21.60;99.90
21906;DHT22;11117;48.644;9.006;2023-09-19T15:34:04;21.80;99.90
21906;DHT22;11117;48.644;9.006;2023-09-19T15:36:29;21.70;99.90
21906;DHT22;11117;48.644;9.006;2023-09-19T15:39:02;21.60;99.90
21906;DHT22;11117;48.644;9.006;2023-09-19T15:41:30;21.60;99.90
21906;DHT22;11117;48.644;9.006;2023-09-19T15:43:57;21.60;99.90
21906;DHT22;11117;48.644;9.006;2023-09-19T15:46:23;21.80;99.90
21906;DHT22;11117;48.644;9.006;2023-09-19T15:48:48;21.70;99.90
21906;DHT22;11117;48.644;9.006;2023-09-19T15:51:14;21.60;99.90
21906;DHT22;11117;48.644;9.006;2023-09-19T15:53:53;21.80;99.90
21906;DHT22;11117;48.644;9.006;2023-09-19T15:56:20;22.00;99.90
21906;DHT22;11117;48.644;9.006;2023-09-19T15:58:47;22.20;99.90
21906;DHT22;11117;48.644;9.006;2023-09-19T16:01:14;22.10;99.90
21906;DHT22;11117;48.644;9.006;2023-09-19T16:03:43;22.30;99.90
21906;DHT22;11117;48.644;9.006;2023-09-19T16:08:35;22.50;99.90
21906;DHT22;11117;48.644;9.006;2023-09-19T16:11:00;22.40;99.90
21906;DHT22;11117;48.644;9.006;2023-09-19T16:13:26;22.20;99.90
21906;DHT22;11117;48.644;9.006;2023-09-19T16:15:51;22.00;99.90
21906;DHT22;11117;48.644;9.006;2023-09-19T16:18:17;22.00;99.90
21906;DHT22;11117;48.644;9.006;2023-09-19T16:20:42;21.60;99.90
21906;DHT22;11117;48.644;9.006;2023-09-19T16:23:08;21.80;99.90
21906;DHT22;11117;48.644;9.006;2023-09-19T16:25:33;21.90;99.90
21906;DHT22;11117;48.644;9.006;2023-09-19T16:27:59;22.00;99.90